sensor_id;sensor_type;location;lat;lon;timestamp;P1;durP1;ratioP1;P2;durP2;ratioP2
19105;SDS011;9685;54.338;18.672;2023-10-31T00:00:44;119.83;;;60.30;;
19105;SDS011;9685;54.338;18.672;2023-10-31T00:03:11;124.87;;;61.60;;
19105;SDS011;9685;54.338;18.672;2023-10-31T00:05:38;102.83;;;53.23;;
19105;SDS011;9685;54.338;18.672;2023-10-31T00:08:06;167.77;;;74.27;;
19105;SDS011;9685;54.338;18.672;2023-10-31T00:10:33;162.47;;;74.53;;
19105;SDS011;9685;54.338;18.672;2023-10-31T00:13:00;155.07;;;74.03;;
19105;SDS011;9685;54.338;18.672;2023-10-31T00:15:27;179.00;;;86.20;;
19105;SDS011;9685;54.338;18.672;2023-10-31T00:17:55;216.13;;;93.27;;
19105;SDS011;9685;54.338;18.672;2023-10-31T00:20:22;159.57;;;73.40;;
19105;SDS011;9685;54.338;18.672;2023-10-31T00:22:49;197.07;;;84.90;;
19105;SDS011;9685;54.338;18.672;2023-10-31T00:25:17;201.13;;;84.20;;
19105;SDS011;9685;54.338;18.672;2023-10-31T00:27:44;218.87;;;92.57;;
19105;SDS011;9685;54.338;18.672;2023-10-31T00:30:12;303.27;;;114.13;;
19105;SDS011;9685;54.338;18.672;2023-10-31T00:32:39;438.80;;;176.90;;
19105;SDS011;9685;54.338;18.672;2023-10-31T00:35:06;288.30;;;122.00;;
19105;SDS011;9685;54.338;18.672;2023-10-31T00:37:32;253.93;;;111.37;;
19105;SDS011;9685;54.338;18.672;2023-10-31T00:39:59;236.70;;;100.97;;
19105;SDS011;9685;54.338;18.672;2023-10-31T00:42:27;203.47;;;89.80;;
19105;SDS011;9685;54.338;18.672;2023-10-31T00:44:54;179.30;;;80.40;;
19105;SDS011;9685;54.338;18.672;2023-10-31T00:47:21;153.17;;;71.87;;
19105;SDS011;9685;54.338;18.672;2023-10-31T00:49:48;149.07;;;70.27;;
19105;SDS011;9685;54.338;18.672;2023-10-31T00:52:15;142.03;;;69.60;;
19105;SDS011;9685;54.338;18.672;2023-10-31T00:54:42;131.20;;;64.47;;
19105;SDS011;9685;54.338;18.672;2023-10-31T00:57:09;138.90;;;67.23;;
19105;SDS011;9685;54.338;18.672;2023-10-31T00:59:37;148.87;;;67.70;;
19105;SDS011;9685;54.338;18.672;2023-10-31T01:02:04;137.17;;;64.87;;
19105;SDS011;9685;54.338;18.672;2023-10-31T01:04:31;137.33;;;66.60;;
19105;SDS011;9685;54.338;18.672;2023-10-31T01:06:58;160.23;;;71.87;;
19105;SDS011;9685;54.338;18.672;2023-10-31T01:09:26;150.97;;;69.20;;
19105;SDS011;9685;54.338;18.672;2023-10-31T01:11:52;158.27;;;74.50;;
19105;SDS011;9685;54.338;18.672;2023-10-31T01:14:20;169.20;;;76.37;;
19105;SDS011;9685;54.338;18.672;2023-10-31T01:16:48;183.80;;;82.80;;
19105;SDS011;9685;54.338;18.672;2023-10-31T01:19:15;170.10;;;76.33;;
19105;SDS011;9685;54.338;18.672;2023-10-31T01:21:42;150.03;;;73.57;;
19105;SDS011;9685;54.338;18.672;2023-10-31T01:24:09;154.80;;;71.93;;
19105;SDS011;9685;54.338;18.672;2023-10-31T01:26:36;145.83;;;67.57;;
19105;SDS011;9685;54.338;18.672;2023-10-31T01:29:03;144.27;;;68.13;;
19105;SDS011;9685;54.338;18.672;2023-10-31T01:31:30;129.43;;;63.80;;
19105;SDS011;9685;54.338;18.672;2023-10-31T01:33:59;131.97;;;63.10;;
19105;SDS011;9685;54.338;18.672;2023-10-31T01:36:26;131.57;;;65.37;;
19105;SDS011;9685;54.338;18.672;2023-10-31T01:38:53;127.93;;;59.40;;
19105;SDS011;9685;54.338;18.672;2023-10-31T01:41:19;135.23;;;65.37;;
19105;SDS011;9685;54.338;18.672;2023-10-31T01:43:46;147.33;;;66.97;;
19105;SDS011;9685;54.338;18.672;2023-10-31T01:46:13;149.53;;;68.80;;
19105;SDS011;9685;54.338;18.672;2023-10-31T01:48:40;156.63;;;79.53;;
19105;SDS011;9685;54.338;18.672;2023-10-31T01:51:09;162.67;;;82.30;;
19105;SDS011;9685;54.338;18.672;2023-10-31T01:53:37;162.80;;;71.30;;
19105;SDS011;9685;54.338;18.672;2023-10-31T01:56:04;152.17;;;70.10;;
19105;SDS011;9685;54.338;18.672;2023-10-31T01:58:33;117.13;;;60.80;;
19105;SDS011;9685;54.338;18.672;2023-10-31T02:01:02;115.87;;;58.47;;
19105;SDS011;9685;54.338;18.672;2023-10-31T02:03:30;105.13;;;54.90;;
19105;SDS011;9685;54.338;18.672;2023-10-31T02:05:58;123.17;;;61.97;;
19105;SDS011;9685;54.338;18.672;2023-10-31T02:08:26;112.90;;;59.40;;
19105;SDS011;9685;54.338;18.672;2023-10-31T02:10:53;111.97;;;57.50;;
19105;SDS011;9685;54.338;18.672;2023-10-31T02:13:20;113.03;;;57.83;;
19105;SDS011;9685;54.338;18.672;2023-10-31T02:15:47;120.57;;;59.90;;
19105;SDS011;9685;54.338;18.672;2023-10-31T02:18:14;131.77;;;62.13;;
19105;SDS011;9685;54.338;18.672;2023-10-31T02:20:41;105.47;;;55.67;;
19105;SDS011;9685;54.338;18.672;2023-10-31T02:23:10;102.93;;;55.63;;
19105;SDS011;9685;54.338;18.672;2023-10-31T02:25:37;94.13;;;52.13;;
19105;SDS011;9685;54.338;18.672;2023-10-31T02:28:04;97.30;;;53.53;;
19105;SDS011;9685;54.338;18.672;2023-10-31T02:30:31;93.63;;;51.17;;
19105;SDS011;9685;54.338;18.672;2023-10-31T02:32:58;93.67;;;52.93;;
19105;SDS011;9685;54.338;18.672;2023-10-31T02:35:26;92.30;;;49.73;;
19105;SDS011;9685;54.338;18.672;2023-10-31T02:37:53;88.00;;;48.60;;
19105;SDS011;9685;54.338;18.672;2023-10-31T02:40:22;98.33;;;51.80;;
19105;SDS011;9685;54.338;18.672;2023-10-31T02:42:49;90.37;;;49.87;;
19105;SDS011;9685;54.338;18.672;2023-10-31T02:45:16;90.67;;;49.70;;
19105;SDS011;9685;54.338;18.672;2023-10-31T02:47:44;81.93;;;46.47;;
19105;SDS011;9685;54.338;18.672;2023-10-31T02:50:11;104.33;;;53.80;;
19105;SDS011;9685;54.338;18.672;2023-10-31T02:52:37;84.83;;;47.20;;
19105;SDS011;9685;54.338;18.672;2023-10-31T02:55:04;94.43;;;48.63;;
19105;SDS011;9685;54.338;18.672;2023-10-31T02:57:33;85.80;;;46.47;;
19105;SDS011;9685;54.338;18.672;2023-10-31T03:00:00;94.37;;;48.30;;
19105;SDS011;9685;54.338;18.672;2023-10-31T03:02:27;89.33;;;46.67;;
19105;SDS011;9685;54.338;18.672;2023-10-31T03:04:55;88.57;;;48.50;;
19105;SDS011;9685;54.338;18.672;2023-10-31T03:07:22;91.80;;;45.07;;
19105;SDS011;9685;54.338;18.672;2023-10-31T03:09:49;91.67;;;46.47;;
19105;SDS011;9685;54.338;18.672;2023-10-31T03:12:16;95.70;;;51.70;;
19105;SDS011;9685;54.338;18.672;2023-10-31T03:14:44;83.77;;;47.03;;
19105;SDS011;9685;54.338;18.672;2023-10-31T03:17:11;77.90;;;43.23;;
19105;SDS011;9685;54.338;18.672;2023-10-31T03:19:38;75.80;;;41.23;;
19105;SDS011;9685;54.338;18.672;2023-10-31T03:22:05;76.87;;;40.03;;
19105;SDS011;9685;54.338;18.672;2023-10-31T03:24:32;73.53;;;38.93;;
19105;SDS011;9685;54.338;18.672;2023-10-31T03:26:59;76.17;;;39.03;;
19105;SDS011;9685;54.338;18.672;2023-10-31T03:29:26;83.23;;;44.47;;
19105;SDS011;9685;54.338;18.672;2023-10-31T03:31:54;85.47;;;42.33;;
19105;SDS011;9685;54.338;18.672;2023-10-31T03:34:21;67.40;;;36.23;;
19105;SDS011;9685;54.338;18.672;2023-10-31T03:36:48;63.27;;;38.10;;
19105;SDS011;9685;54.338;18.672;2023-10-31T03:39:15;86.93;;;45.30;;
19105;SDS011;9685;54.338;18.672;2023-10-31T03:41:42;74.90;;;38.30;;
19105;SDS011;9685;54.338;18.672;2023-10-31T03:44:09;79.10;;;38.50;;
19105;SDS011;9685;54.338;18.672;2023-10-31T03:46:36;65.90;;;37.93;;
19105;SDS011;9685;54.338;18.672;2023-10-31T03:49:04;99.80;;;52.43;;
19105;SDS011;9685;54.338;18.672;2023-10-31T03:51:32;86.70;;;46.37;;
19105;SDS011;9685;54.338;18.672;2023-10-31T03:53:59;104.53;;;55.90;;
19105;SDS011;9685;54.338;18.672;2023-10-31T03:56:26;152.30;;;86.07;;
19105;SDS011;9685;54.338;18.672;2023-10-31T03:58:53;187.73;;;100.73;;
19105;SDS011;9685;54.338;18.672;2023-10-31T04:01:20;185.63;;;89.03;;
19105;SDS011;9685;54.338;18.672;2023-10-31T04:03:47;80.20;;;44.63;;
19105;SDS011;9685;54.338;18.672;2023-10-31T04:06:15;74.43;;;41.47;;
19105;SDS011;9685;54.338;18.672;2023-10-31T04:08:42;81.90;;;44.33;;
19105;SDS011;9685;54.338;18.672;2023-10-31T04:11:09;87.97;;;48.77;;
19105;SDS011;9685;54.338;18.672;2023-10-31T04:13:36;76.30;;;43.60;;
19105;SDS011;9685;54.338;18.672;2023-10-31T04:16:03;104.23;;;50.20;;
19105;SDS011;9685;54.338;18.672;2023-10-31T04:18:30;89.33;;;45.87;;
19105;SDS011;9685;54.338;18.672;2023-10-31T04:20:57;87.33;;;43.30;;
19105;SDS011;9685;54.338;18.672;2023-10-31T04:23:25;100.83;;;57.07;;
19105;SDS011;9685;54.338;18.672;2023-10-31T04:25:52;66.73;;;39.30;;
19105;SDS011;9685;54.338;18.672;2023-10-31T04:28:19;66.80;;;40.03;;
19105;SDS011;9685;54.338;18.672;2023-10-31T04:30:46;82.20;;;41.97;;
19105;SDS011;9685;54.338;18.672;2023-10-31T04:33:13;59.73;;;34.53;;
19105;SDS011;9685;54.338;18.672;2023-10-31T04:35:40;60.60;;;35.97;;
19105;SDS011;9685;54.338;18.672;2023-10-31T04:38:07;57.53;;;34.30;;
19105;SDS011;9685;54.338;18.672;2023-10-31T04:40:35;64.47;;;38.00;;
19105;SDS011;9685;54.338;18.672;2023-10-31T04:43:02;55.30;;;34.50;;
19105;SDS011;9685;54.338;18.672;2023-10-31T04:45:29;59.47;;;33.90;;
19105;SDS011;9685;54.338;18.672;2023-10-31T04:47:56;67.00;;;36.53;;
19105;SDS011;9685;54.338;18.672;2023-10-31T04:50:23;66.57;;;37.00;;
19105;SDS011;9685;54.338;18.672;2023-10-31T04:52:50;131.60;;;60.93;;
19105;SDS011;9685;54.338;18.672;2023-10-31T04:55:16;112.83;;;44.33;;
19105;SDS011;9685;54.338;18.672;2023-10-31T04:57:45;104.83;;;45.73;;
19105;SDS011;9685;54.338;18.672;2023-10-31T05:00:12;71.23;;;38.17;;
19105;SDS011;9685;54.338;18.672;2023-10-31T05:02:39;93.20;;;41.00;;
19105;SDS011;9685;54.338;18.672;2023-10-31T05:05:06;66.33;;;39.47;;
19105;SDS011;9685;54.338;18.672;2023-10-31T05:07:33;85.30;;;44.17;;
19105;SDS011;9685;54.338;18.672;2023-10-31T05:10:00;82.47;;;41.93;;
19105;SDS011;9685;54.338;18.672;2023-10-31T05:12:27;85.77;;;41.27;;
19105;SDS011;9685;54.338;18.672;2023-10-31T05:14:55;59.83;;;35.00;;
19105;SDS011;9685;54.338;18.672;2023-10-31T05:17:22;92.67;;;40.63;;
19105;SDS011;9685;54.338;18.672;2023-10-31T05:19:49;305.30;;;102.00;;
19105;SDS011;9685;54.338;18.672;2023-10-31T05:22:16;954.63;;;342.57;;
19105;SDS011;9685;54.338;18.672;2023-10-31T05:24:43;553.97;;;201.07;;
19105;SDS011;9685;54.338;18.672;2023-10-31T05:27:10;167.83;;;61.27;;
19105;SDS011;9685;54.338;18.672;2023-10-31T05:29:38;90.67;;;49.27;;
19105;SDS011;9685;54.338;18.672;2023-10-31T05:32:07;97.67;;;49.73;;
19105;SDS011;9685;54.338;18.672;2023-10-31T05:34:34;84.27;;;45.97;;
19105;SDS011;9685;54.338;18.672;2023-10-31T05:37:01;53.60;;;32.00;;
19105;SDS011;9685;54.338;18.672;2023-10-31T05:39:31;190.27;;;88.97;;
19105;SDS011;9685;54.338;18.672;2023-10-31T05:41:58;91.70;;;48.90;;
19105;SDS011;9685;54.338;18.672;2023-10-31T05:44:24;179.87;;;79.97;;
19105;SDS011;9685;54.338;18.672;2023-10-31T05:46:51;112.87;;;57.13;;
19105;SDS011;9685;54.338;18.672;2023-10-31T05:49:20;106.43;;;44.87;;
19105;SDS011;9685;54.338;18.672;2023-10-31T05:51:49;51.23;;;31.63;;
19105;SDS011;9685;54.338;18.672;2023-10-31T05:54:16;60.93;;;34.40;;
19105;SDS011;9685;54.338;18.672;2023-10-31T05:56:43;70.30;;;37.43;;
19105;SDS011;9685;54.338;18.672;2023-10-31T05:59:11;84.00;;;45.47;;
19105;SDS011;9685;54.338;18.672;2023-10-31T06:01:38;74.97;;;41.93;;
19105;SDS011;9685;54.338;18.672;2023-10-31T06:04:05;66.23;;;39.60;;
19105;SDS011;9685;54.338;18.672;2023-10-31T06:06:36;79.27;;;43.43;;
19105;SDS011;9685;54.338;18.672;2023-10-31T06:09:04;81.03;;;43.40;;
19105;SDS011;9685;54.338;18.672;2023-10-31T06:11:31;87.60;;;44.90;;
19105;SDS011;9685;54.338;18.672;2023-10-31T06:13:58;75.37;;;39.13;;
19105;SDS011;9685;54.338;18.672;2023-10-31T06:16:25;55.57;;;34.17;;
19105;SDS011;9685;54.338;18.672;2023-10-31T06:18:52;61.93;;;35.37;;
19105;SDS011;9685;54.338;18.672;2023-10-31T06:21:19;93.40;;;44.77;;
19105;SDS011;9685;54.338;18.672;2023-10-31T06:23:47;54.60;;;32.00;;
19105;SDS011;9685;54.338;18.672;2023-10-31T06:26:14;53.70;;;33.27;;
19105;SDS011;9685;54.338;18.672;2023-10-31T06:28:41;55.10;;;32.67;;
19105;SDS011;9685;54.338;18.672;2023-10-31T06:31:08;57.67;;;34.00;;
19105;SDS011;9685;54.338;18.672;2023-10-31T06:33:35;52.13;;;32.17;;
19105;SDS011;9685;54.338;18.672;2023-10-31T06:36:02;88.00;;;42.90;;
19105;SDS011;9685;54.338;18.672;2023-10-31T06:38:29;55.77;;;32.23;;
19105;SDS011;9685;54.338;18.672;2023-10-31T06:40:57;62.40;;;37.60;;
19105;SDS011;9685;54.338;18.672;2023-10-31T06:43:24;61.20;;;32.97;;
19105;SDS011;9685;54.338;18.672;2023-10-31T06:45:52;55.13;;;32.03;;
19105;SDS011;9685;54.338;18.672;2023-10-31T06:48:19;764.37;;;434.80;;
19105;SDS011;9685;54.338;18.672;2023-10-31T06:50:46;76.93;;;47.93;;
19105;SDS011;9685;54.338;18.672;2023-10-31T06:53:13;60.83;;;35.83;;
19105;SDS011;9685;54.338;18.672;2023-10-31T06:55:40;50.33;;;30.33;;
19105;SDS011;9685;54.338;18.672;2023-10-31T06:58:08;58.37;;;32.07;;
19105;SDS011;9685;54.338;18.672;2023-10-31T07:00:35;64.07;;;35.97;;
19105;SDS011;9685;54.338;18.672;2023-10-31T07:03:03;60.27;;;35.07;;
19105;SDS011;9685;54.338;18.672;2023-10-31T07:05:34;75.07;;;40.90;;
19105;SDS011;9685;54.338;18.672;2023-10-31T07:08:01;150.30;;;67.43;;
19105;SDS011;9685;54.338;18.672;2023-10-31T07:10:28;98.57;;;49.97;;
19105;SDS011;9685;54.338;18.672;2023-10-31T07:12:55;73.90;;;43.63;;
19105;SDS011;9685;54.338;18.672;2023-10-31T07:15:25;74.50;;;40.00;;
19105;SDS011;9685;54.338;18.672;2023-10-31T07:17:52;81.63;;;49.43;;
19105;SDS011;9685;54.338;18.672;2023-10-31T07:20:19;96.27;;;53.00;;
19105;SDS011;9685;54.338;18.672;2023-10-31T07:22:46;112.03;;;58.87;;
19105;SDS011;9685;54.338;18.672;2023-10-31T07:25:12;74.10;;;42.00;;
19105;SDS011;9685;54.338;18.672;2023-10-31T07:27:40;65.73;;;36.03;;
19105;SDS011;9685;54.338;18.672;2023-10-31T07:30:07;73.97;;;36.07;;
19105;SDS011;9685;54.338;18.672;2023-10-31T07:32:35;97.83;;;46.43;;
19105;SDS011;9685;54.338;18.672;2023-10-31T07:35:02;81.53;;;41.63;;
19105;SDS011;9685;54.338;18.672;2023-10-31T07:37:30;78.50;;;39.23;;
19105;SDS011;9685;54.338;18.672;2023-10-31T07:39:57;83.57;;;44.00;;
19105;SDS011;9685;54.338;18.672;2023-10-31T07:42:24;78.63;;;40.47;;
19105;SDS011;9685;54.338;18.672;2023-10-31T07:44:51;115.70;;;55.07;;
19105;SDS011;9685;54.338;18.672;2023-10-31T07:47:17;95.30;;;43.93;;
19105;SDS011;9685;54.338;18.672;2023-10-31T07:49:46;88.23;;;44.23;;
19105;SDS011;9685;54.338;18.672;2023-10-31T07:52:13;114.40;;;53.90;;
19105;SDS011;9685;54.338;18.672;2023-10-31T07:54:40;90.27;;;44.77;;
19105;SDS011;9685;54.338;18.672;2023-10-31T07:57:07;78.27;;;42.27;;
19105;SDS011;9685;54.338;18.672;2023-10-31T07:59:33;93.17;;;45.17;;
19105;SDS011;9685;54.338;18.672;2023-10-31T08:02:01;78.70;;;41.60;;
19105;SDS011;9685;54.338;18.672;2023-10-31T08:04:28;77.00;;;39.77;;
19105;SDS011;9685;54.338;18.672;2023-10-31T08:06:56;83.90;;;43.97;;
19105;SDS011;9685;54.338;18.672;2023-10-31T08:09:23;66.57;;;38.93;;
19105;SDS011;9685;54.338;18.672;2023-10-31T08:11:50;76.83;;;41.53;;
19105;SDS011;9685;54.338;18.672;2023-10-31T08:14:17;81.53;;;43.23;;
19105;SDS011;9685;54.338;18.672;2023-10-31T08:16:44;78.70;;;41.17;;
19105;SDS011;9685;54.338;18.672;2023-10-31T08:19:11;96.77;;;48.60;;
19105;SDS011;9685;54.338;18.672;2023-10-31T08:21:39;77.23;;;40.50;;
19105;SDS011;9685;54.338;18.672;2023-10-31T08:24:08;73.03;;;40.03;;
19105;SDS011;9685;54.338;18.672;2023-10-31T08:26:35;69.93;;;39.43;;
19105;SDS011;9685;54.338;18.672;2023-10-31T08:29:02;69.50;;;38.87;;
19105;SDS011;9685;54.338;18.672;2023-10-31T08:31:29;81.50;;;43.37;;
19105;SDS011;9685;54.338;18.672;2023-10-31T08:33:56;76.00;;;38.90;;
19105;SDS011;9685;54.338;18.672;2023-10-31T08:36:23;73.50;;;38.27;;
19105;SDS011;9685;54.338;18.672;2023-10-31T08:38:50;74.50;;;39.43;;
19105;SDS011;9685;54.338;18.672;2023-10-31T08:41:18;69.30;;;38.77;;
19105;SDS011;9685;54.338;18.672;2023-10-31T08:43:46;79.03;;;40.77;;
19105;SDS011;9685;54.338;18.672;2023-10-31T08:46:13;81.87;;;42.77;;
19105;SDS011;9685;54.338;18.672;2023-10-31T08:48:40;89.63;;;48.80;;
19105;SDS011;9685;54.338;18.672;2023-10-31T08:51:07;97.50;;;52.10;;
19105;SDS011;9685;54.338;18.672;2023-10-31T08:53:34;83.67;;;49.00;;
19105;SDS011;9685;54.338;18.672;2023-10-31T08:56:01;91.33;;;49.20;;
19105;SDS011;9685;54.338;18.672;2023-10-31T08:58:29;96.17;;;51.17;;
19105;SDS011;9685;54.338;18.672;2023-10-31T09:00:56;95.50;;;49.13;;
19105;SDS011;9685;54.338;18.672;2023-10-31T09:03:23;94.43;;;51.50;;
19105;SDS011;9685;54.338;18.672;2023-10-31T09:05:50;95.73;;;51.97;;
19105;SDS011;9685;54.338;18.672;2023-10-31T09:08:17;101.67;;;56.70;;
19105;SDS011;9685;54.338;18.672;2023-10-31T09:10:44;96.83;;;52.70;;
19105;SDS011;9685;54.338;18.672;2023-10-31T09:13:11;101.63;;;52.30;;
19105;SDS011;9685;54.338;18.672;2023-10-31T09:15:40;98.87;;;51.30;;
19105;SDS011;9685;54.338;18.672;2023-10-31T09:18:07;100.53;;;54.10;;
19105;SDS011;9685;54.338;18.672;2023-10-31T09:20:34;99.13;;;56.10;;
19105;SDS011;9685;54.338;18.672;2023-10-31T09:23:02;115.63;;;59.17;;
19105;SDS011;9685;54.338;18.672;2023-10-31T09:25:29;110.60;;;53.37;;
19105;SDS011;9685;54.338;18.672;2023-10-31T09:27:56;146.03;;;67.00;;
19105;SDS011;9685;54.338;18.672;2023-10-31T09:30:24;130.47;;;64.40;;
19105;SDS011;9685;54.338;18.672;2023-10-31T09:32:53;127.37;;;60.17;;
19105;SDS011;9685;54.338;18.672;2023-10-31T09:35:20;118.90;;;61.43;;
19105;SDS011;9685;54.338;18.672;2023-10-31T09:37:47;164.77;;;79.00;;
19105;SDS011;9685;54.338;18.672;2023-10-31T09:40:14;230.17;;;102.10;;
19105;SDS011;9685;54.338;18.672;2023-10-31T09:42:41;186.97;;;86.53;;
19105;SDS011;9685;54.338;18.672;2023-10-31T09:45:10;121.63;;;63.33;;
19105;SDS011;9685;54.338;18.672;2023-10-31T09:47:37;109.97;;;56.53;;
19105;SDS011;9685;54.338;18.672;2023-10-31T09:50:06;91.83;;;50.13;;
19105;SDS011;9685;54.338;18.672;2023-10-31T09:52:35;105.27;;;56.27;;
19105;SDS011;9685;54.338;18.672;2023-10-31T09:55:02;96.07;;;52.73;;
19105;SDS011;9685;54.338;18.672;2023-10-31T09:57:29;103.00;;;54.90;;
19105;SDS011;9685;54.338;18.672;2023-10-31T09:59:57;108.13;;;58.20;;
19105;SDS011;9685;54.338;18.672;2023-10-31T10:02:24;102.97;;;54.30;;
19105;SDS011;9685;54.338;18.672;2023-10-31T10:04:51;102.47;;;52.13;;
19105;SDS011;9685;54.338;18.672;2023-10-31T10:07:20;85.43;;;46.93;;
19105;SDS011;9685;54.338;18.672;2023-10-31T10:09:46;102.63;;;51.07;;
19105;SDS011;9685;54.338;18.672;2023-10-31T10:12:14;91.30;;;52.63;;
19105;SDS011;9685;54.338;18.672;2023-10-31T10:14:42;82.77;;;43.87;;
19105;SDS011;9685;54.338;18.672;2023-10-31T10:17:15;72.17;;;40.90;;
19105;SDS011;9685;54.338;18.672;2023-10-31T10:19:43;91.03;;;45.93;;
19105;SDS011;9685;54.338;18.672;2023-10-31T10:22:10;63.47;;;39.00;;
19105;SDS011;9685;54.338;18.672;2023-10-31T10:24:42;52.63;;;33.57;;
19105;SDS011;9685;54.338;18.672;2023-10-31T10:27:09;54.13;;;35.83;;
19105;SDS011;9685;54.338;18.672;2023-10-31T10:29:37;56.27;;;34.13;;
19105;SDS011;9685;54.338;18.672;2023-10-31T10:32:05;49.00;;;30.87;;
19105;SDS011;9685;54.338;18.672;2023-10-31T10:34:34;46.83;;;30.07;;
19105;SDS011;9685;54.338;18.672;2023-10-31T10:37:01;49.00;;;30.97;;
19105;SDS011;9685;54.338;18.672;2023-10-31T10:39:32;42.57;;;29.70;;
19105;SDS011;9685;54.338;18.672;2023-10-31T10:42:02;46.27;;;31.63;;
19105;SDS011;9685;54.338;18.672;2023-10-31T10:44:35;42.70;;;29.47;;
19105;SDS011;9685;54.338;18.672;2023-10-31T10:47:04;46.67;;;28.47;;
19105;SDS011;9685;54.338;18.672;2023-10-31T10:49:33;41.03;;;25.83;;
19105;SDS011;9685;54.338;18.672;2023-10-31T10:52:04;38.70;;;25.40;;
19105;SDS011;9685;54.338;18.672;2023-10-31T10:54:42;41.13;;;26.97;;
19105;SDS011;9685;54.338;18.672;2023-10-31T10:57:19;36.43;;;24.83;;
19105;SDS011;9685;54.338;18.672;2023-10-31T10:59:55;33.57;;;23.43;;
19105;SDS011;9685;54.338;18.672;2023-10-31T11:02:24;30.47;;;22.87;;
19105;SDS011;9685;54.338;18.672;2023-10-31T11:04:52;49.13;;;23.30;;
19105;SDS011;9685;54.338;18.672;2023-10-31T11:07:20;35.90;;;23.10;;
19105;SDS011;9685;54.338;18.672;2023-10-31T11:09:49;33.30;;;21.93;;
19105;SDS011;9685;54.338;18.672;2023-10-31T11:12:17;28.93;;;20.30;;
19105;SDS011;9685;54.338;18.672;2023-10-31T11:14:47;29.63;;;21.47;;
19105;SDS011;9685;54.338;18.672;2023-10-31T11:17:16;25.47;;;18.80;;
19105;SDS011;9685;54.338;18.672;2023-10-31T11:19:50;24.27;;;18.37;;
19105;SDS011;9685;54.338;18.672;2023-10-31T11:22:18;27.33;;;17.30;;
19105;SDS011;9685;54.338;18.672;2023-10-31T11:24:45;20.00;;;14.93;;
19105;SDS011;9685;54.338;18.672;2023-10-31T11:27:12;18.97;;;15.27;;
19105;SDS011;9685;54.338;18.672;2023-10-31T11:29:40;19.33;;;14.27;;
19105;SDS011;9685;54.338;18.672;2023-10-31T11:32:08;15.70;;;11.70;;
19105;SDS011;9685;54.338;18.672;2023-10-31T11:34:36;18.87;;;13.97;;
19105;SDS011;9685;54.338;18.672;2023-10-31T11:42:43;23.57;;;15.70;;
19105;SDS011;9685;54.338;18.672;2023-10-31T11:45:14;28.47;;;18.00;;
19105;SDS011;9685;54.338;18.672;2023-10-31T11:47:54;10.93;;;7.87;;
19105;SDS011;9685;54.338;18.672;2023-10-31T11:50:21;13.37;;;8.53;;
19105;SDS011;9685;54.338;18.672;2023-10-31T11:52:58;9.33;;;7.37;;
19105;SDS011;9685;54.338;18.672;2023-10-31T11:55:27;10.60;;;9.33;;
19105;SDS011;9685;54.338;18.672;2023-10-31T11:57:54;12.40;;;8.03;;
19105;SDS011;9685;54.338;18.672;2023-10-31T12:00:23;8.37;;;6.17;;
19105;SDS011;9685;54.338;18.672;2023-10-31T12:02:57;9.10;;;6.33;;
19105;SDS011;9685;54.338;18.672;2023-10-31T12:05:24;10.30;;;6.47;;
19105;SDS011;9685;54.338;18.672;2023-10-31T12:07:51;13.13;;;7.40;;
19105;SDS011;9685;54.338;18.672;2023-10-31T12:10:22;9.70;;;6.13;;
19105;SDS011;9685;54.338;18.672;2023-10-31T12:12:50;7.33;;;5.57;;
19105;SDS011;9685;54.338;18.672;2023-10-31T12:15:17;9.37;;;6.30;;
19105;SDS011;9685;54.338;18.672;2023-10-31T12:17:47;6.83;;;4.53;;
19105;SDS011;9685;54.338;18.672;2023-10-31T12:20:14;5.60;;;4.80;;
19105;SDS011;9685;54.338;18.672;2023-10-31T12:22:42;7.93;;;5.30;;
19105;SDS011;9685;54.338;18.672;2023-10-31T12:25:09;8.57;;;6.83;;
19105;SDS011;9685;54.338;18.672;2023-10-31T12:27:44;4.03;;;3.63;;
19105;SDS011;9685;54.338;18.672;2023-10-31T12:30:12;5.23;;;4.73;;
19105;SDS011;9685;54.338;18.672;2023-10-31T12:32:40;4.67;;;3.97;;
19105;SDS011;9685;54.338;18.672;2023-10-31T12:35:09;5.43;;;4.20;;
19105;SDS011;9685;54.338;18.672;2023-10-31T12:37:41;5.23;;;4.43;;
19105;SDS011;9685;54.338;18.672;2023-10-31T12:40:11;4.37;;;3.63;;
19105;SDS011;9685;54.338;18.672;2023-10-31T12:42:40;3.33;;;3.03;;
19105;SDS011;9685;54.338;18.672;2023-10-31T12:45:08;5.97;;;4.20;;
19105;SDS011;9685;54.338;18.672;2023-10-31T12:47:35;3.97;;;3.63;;
19105;SDS011;9685;54.338;18.672;2023-10-31T12:50:06;4.03;;;2.83;;
19105;SDS011;9685;54.338;18.672;2023-10-31T12:52:48;3.63;;;3.20;;
19105;SDS011;9685;54.338;18.672;2023-10-31T12:55:17;3.90;;;3.50;;
19105;SDS011;9685;54.338;18.672;2023-10-31T12:57:46;5.67;;;4.43;;
19105;SDS011;9685;54.338;18.672;2023-10-31T13:00:14;7.33;;;4.23;;
19105;SDS011;9685;54.338;18.672;2023-10-31T13:02:44;6.57;;;4.10;;
19105;SDS011;9685;54.338;18.672;2023-10-31T13:05:11;3.93;;;3.53;;
19105;SDS011;9685;54.338;18.672;2023-10-31T13:07:39;3.80;;;3.50;;
19105;SDS011;9685;54.338;18.672;2023-10-31T13:10:15;3.37;;;3.13;;
19105;SDS011;9685;54.338;18.672;2023-10-31T13:12:43;5.07;;;4.10;;
19105;SDS011;9685;54.338;18.672;2023-10-31T13:15:11;5.30;;;4.10;;
19105;SDS011;9685;54.338;18.672;2023-10-31T13:17:38;4.60;;;3.93;;
19105;SDS011;9685;54.338;18.672;2023-10-31T13:20:07;3.73;;;3.43;;
19105;SDS011;9685;54.338;18.672;2023-10-31T13:22:35;4.80;;;3.93;;
19105;SDS011;9685;54.338;18.672;2023-10-31T13:25:02;4.70;;;4.30;;
19105;SDS011;9685;54.338;18.672;2023-10-31T13:27:31;5.87;;;4.87;;
19105;SDS011;9685;54.338;18.672;2023-10-31T13:29:58;5.67;;;4.83;;
19105;SDS011;9685;54.338;18.672;2023-10-31T13:32:25;5.53;;;5.03;;
19105;SDS011;9685;54.338;18.672;2023-10-31T13:34:52;4.23;;;3.63;;
19105;SDS011;9685;54.338;18.672;2023-10-31T13:37:19;4.30;;;3.80;;
19105;SDS011;9685;54.338;18.672;2023-10-31T13:39:46;4.80;;;4.40;;
19105;SDS011;9685;54.338;18.672;2023-10-31T13:42:14;5.43;;;4.37;;
19105;SDS011;9685;54.338;18.672;2023-10-31T13:44:42;7.40;;;5.50;;
19105;SDS011;9685;54.338;18.672;2023-10-31T13:47:09;8.03;;;5.90;;
19105;SDS011;9685;54.338;18.672;2023-10-31T13:49:37;10.80;;;8.60;;
19105;SDS011;9685;54.338;18.672;2023-10-31T13:52:03;6.47;;;4.90;;
19105;SDS011;9685;54.338;18.672;2023-10-31T13:54:31;6.90;;;6.30;;
19105;SDS011;9685;54.338;18.672;2023-10-31T13:56:58;5.37;;;4.87;;
19105;SDS011;9685;54.338;18.672;2023-10-31T13:59:25;5.70;;;5.10;;
19105;SDS011;9685;54.338;18.672;2023-10-31T14:01:54;7.00;;;5.83;;
19105;SDS011;9685;54.338;18.672;2023-10-31T14:04:20;6.23;;;5.30;;
19105;SDS011;9685;54.338;18.672;2023-10-31T14:06:47;6.23;;;4.33;;
19105;SDS011;9685;54.338;18.672;2023-10-31T14:09:14;5.47;;;4.90;;
19105;SDS011;9685;54.338;18.672;2023-10-31T14:11:41;5.40;;;4.23;;
19105;SDS011;9685;54.338;18.672;2023-10-31T14:14:08;5.93;;;4.40;;
19105;SDS011;9685;54.338;18.672;2023-10-31T14:16:38;5.73;;;4.90;;
19105;SDS011;9685;54.338;18.672;2023-10-31T14:19:07;6.27;;;4.20;;
19105;SDS011;9685;54.338;18.672;2023-10-31T14:21:34;5.03;;;4.53;;
19105;SDS011;9685;54.338;18.672;2023-10-31T14:24:01;7.03;;;5.27;;
19105;SDS011;9685;54.338;18.672;2023-10-31T14:26:29;12.73;;;7.17;;
19105;SDS011;9685;54.338;18.672;2023-10-31T14:28:58;11.20;;;7.80;;